Thomson Dream — 9HA2381 — position and weather

sailwx.info

Track history (hours):
 
Tides and Currents Weather Stations Pressure Air Temp Water Temp Dewpoint Dewpoint Depression Visibility Wind Speed Wind Dir Waves Ship Positions

Thomson Dream

Last reported at 2014-Aug-02 06:33 UTC. Time now 2014-Aug-02 06:42 UTC.
Position N 39°33' E 002°38'.

Length 243 m; draft 7.6 m.

Type: Ship. MMSI: 248480975.

Date/timePositionNaut miles runAvg speedWind from/ knotsBaromVisibWave heightAir tempDewpointWater temp
2014-Aug-02 06:33N 39°33' E 002°38'0 0.0
2014-Aug-02 05:33N 39°33' E 002°38'0 0.0
2014-Aug-02 04:33N 39°33' E 002°38'0 0.3
2014-Aug-02 03:33N 39°33' E 002°38'8 7.8
2014-Aug-02 02:33N 39°27' E 002°33'1010.4
2014-Aug-02 01:33N 39°29' E 002°20'1111.2
2014-Aug-02 00:33N 39°39' E 002°14'1212.0
2014-Aug-01 23:33N 39°51' E 002°14'1212.2
2014-Aug-01 22:33N 40°03' E 002°14'1212.2
2014-Aug-01 21:33N 40°15' E 002°13'1212.3
2014-Aug-01 20:33N 40°28' E 002°12'1212.3
2014-Aug-01 19:33N 40°40' E 002°14'1212.3
2014-Aug-01 18:33N 40°52' E 002°13'1312.6
2014-Aug-01 17:33N 41°05' E 002°14'1312.9
2014-Aug-01 16:33N 41°18' E 002°13'5 2.0
2014-Aug-01 14:17N 41°22' E 002°11'0 0.0
2014-Aug-01 13:23N 41°22' E 002°11'0 0.0
2014-Aug-01 12:23N 41°22' E 002°11'0 0.0
2014-Aug-01 11:29N 41°22' E 002°11'0 0.0
2014-Aug-01 10:23N 41°22' E 002°11'0 0.0
2014-Aug-01 09:23N 41°22' E 002°11'0 0.0
2014-Aug-01 08:17N 41°22' E 002°11'0 0.0
2014-Aug-01 07:33N 41°22' E 002°11'7 7.1
2014-Aug-01 06:33N 41°21' E 002°20'1615.8
2014-Aug-01 05:33N 41°27' E 002°40'1615.7
2014-Aug-01 04:33N 41°34' E 002°59'1717.1
2014-Aug-01 03:33N 41°43' E 003°18'1716.9
2014-Aug-01 02:33N 41°51' E 003°38'1615.8
2014-Aug-01 01:33N 41°58' E 003°57'1616.1
2014-Aug-01 00:33N 42°06' E 004°16'1616.4
2014-Jul-31 23:33N 42°13' E 004°36'1615.9
2014-Jul-31 22:33N 42°20' E 004°55'1515.1
2014-Jul-31 21:33N 42°27' E 005°13'1515.4
2014-Jul-31 20:33N 42°34' E 005°32'1515.4
2014-Jul-31 19:33N 42°41' E 005°50'1615.5
2014-Jul-31 18:33N 42°48' E 006°09'1616.1
2014-Jul-31 17:33N 42°57' E 006°28'1616.3
2014-Jul-31 16:33N 43°08' E 006°44'1515.2
2014-Jul-31 15:33N 43°23' E 006°46'1 1.3
2014-Jul-31 14:31N 43°25' E 006°46'0 0.0
2014-Jul-31 13:31N 43°25' E 006°46'0 0.0
2014-Jul-31 12:31N 43°25' E 006°46'0 0.0
2014-Jul-31 11:31N 43°25' E 006°46'0 0.0
2014-Jul-31 10:31N 43°25' E 006°46'0 0.1
2014-Jul-31 09:31N 43°25' E 006°46'0 0.0
2014-Jul-31 08:31N 43°25' E 006°46'0 0.0
2014-Jul-31 07:31N 43°25' E 006°46'0 0.0
2014-Jul-31 06:31N 43°25' E 006°46'0 0.0
2014-Jul-31 05:31N 43°25' E 006°46'0 0.2
2014-Jul-31 04:33N 43°25' E 006°46'1211.7
2014-Jul-31 03:33N 43°23' E 007°02'1515.5
2014-Jul-31 02:33N 43°24' E 007°23'1514.6
2014-Jul-31 01:33N 43°24' E 007°43'1414.4
2014-Jul-31 00:33N 43°26' E 008°03'1514.2
2014-Jul-30 23:28N 43°28' E 008°24'1414.8
2014-Jul-30 22:33N 43°31' E 008°42'1514.8
2014-Jul-30 21:33N 43°29' E 009°03'1515.0
2014-Jul-30 20:33N 43°31' E 009°23'1514.9
2014-Jul-30 19:33N 43°32' E 009°44'1514.7
2014-Jul-30 18:33N 43°30' E 010°04'1010.2
2014-Jul-30 17:33N 43°33' E 010°18'0 0.2
2014-Jul-30 16:33N 43°33' E 010°18'0 0.0
2014-Jul-30 15:33N 43°33' E 010°18'0 0.0
2014-Jul-30 14:33N 43°33' E 010°18'0 0.0
2014-Jul-30 13:33N 43°33' E 010°18'0 0.0
2014-Jul-30 12:33N 43°33' E 010°18'0 0.0
2014-Jul-30 11:33N 43°33' E 010°18'0 0.0
2014-Jul-30 10:33N 43°33' E 010°18'0 0.0
2014-Jul-30 09:33N 43°33' E 010°18'0 0.0
2014-Jul-30 08:33N 43°33' E 010°18'0 0.0
2014-Jul-30 07:33N 43°33' E 010°18'0 0.0
2014-Jul-30 06:33N 43°33' E 010°18'0 0.0
2014-Jul-30 05:33N 43°33' E 010°18'0 0.1
2014-Jul-30 04:33N 43°33' E 010°18'8 8.1
2014-Jul-30 03:33N 43°26' E 010°13'1514.5
2014-Jul-30 02:33N 43°12' E 010°08'1414.4
2014-Jul-30 01:33N 42°58' E 010°02'96 2.8
2014-Jul-28 15:04N 41°45' E 008°37'17 1.3
2014-Jul-28 02:16N 41°39' E 008°16'1011.0
2014-Jul-28 01:22N 41°34' E 008°05'911.0
2014-Jul-28 00:33N 41°29' E 007°55'1111.0
2014-Jul-27 23:33N 41°23' E 007°43'1111.1
2014-Jul-27 22:33N 41°17' E 007°30'1111.0
2014-Jul-27 21:31N 41°11' E 007°18'1211.3
2014-Jul-27 20:29N 41°05' E 007°05'1111.3
2014-Jul-27 19:33N 40°59' E 006°53'1111.1
2014-Jul-27 18:33N 40°53' E 006°40'12611.3
2014-Jul-27 07:26N 39°45' E 004°21'1011.2
2014-Jul-27 06:33N 39°40' E 004°11'1111.3
2014-Jul-27 05:33N 39°34' E 003°58'1311.3
2014-Jul-27 04:25N 39°27' E 003°44'1011.3
2014-Jul-27 03:33N 39°22' E 003°34'1111.3
2014-Jul-27 02:33N 39°16' E 003°21'1111.3
2014-Jul-27 01:33N 39°09' E 003°10'1110.8
2014-Jul-27 00:33N 39°05' E 002°57'10 9.7
2014-Jul-26 23:33N 39°10' E 002°47'1211.6
2014-Jul-26 22:33N 39°22' E 002°42'1111.5
2014-Jul-26 21:33N 39°33' E 002°39'1 1.0
2014-Jul-26 20:32N 39°33' E 002°38'0 0.0
2014-Jul-26 19:32N 39°33' E 002°38'0 0.0
2014-Jul-26 17:32N 39°33' E 002°38'0 0.0
2014-Jul-26 16:20N 39°33' E 002°38'0 0.0
2014-Jul-26 15:32N 39°33' E 002°38'0 0.0
2014-Jul-26 14:32N 39°33' E 002°38'0 0.0
2014-Jul-26 13:32N 39°33' E 002°38'0 0.0
2014-Jul-26 12:32N 39°33' E 002°38'0 0.0
2014-Jul-26 11:29N 39°33' E 002°38'0 0.0
2014-Jul-26 10:32N 39°33' E 002°38'0 0.0
2014-Jul-26 09:32N 39°33' E 002°38'0 0.0
2014-Jul-26 08:32N 39°33' E 002°38'0 0.0
2014-Jul-26 07:32N 39°33' E 002°38'0 0.0
2014-Jul-26 06:32N 39°33' E 002°38'0 0.0
2014-Jul-26 05:32N 39°33' E 002°38'0 0.2
2014-Jul-26 04:33N 39°33' E 002°38'1212.3
2014-Jul-26 03:33N 39°23' E 002°30'1616.0
2014-Jul-26 02:33N 39°11' E 002°16'1515.2
2014-Jul-26 01:33N 38°59' E 002°03'1312.8
2014-Jul-26 00:33N 38°50' E 001°52'1313.0
2014-Jul-25 23:33N 38°40' E 001°41'1412.8
2014-Jul-25 22:27N 38°32' E 001°26'1212.9
2014-Jul-25 21:33N 38°26' E 001°14'1413.0
2014-Jul-25 20:27N 38°18' E 000°59'1213.1
2014-Jul-25 19:33N 38°11' E 000°46'1414.0
2014-Jul-25 18:33N 38°04' E 000°31'1817.5
2014-Jul-25 17:33N 37°55' E 000°12'1717.1
2014-Jul-25 16:33N 37°45' W 000°06'1413.8
2014-Jul-25 15:33N 37°38' W 000°20'1312.6
2014-Jul-25 14:33N 37°32' W 000°34'37 3.4
2014-Jul-25 03:30N 37°16' W 001°17'1111.6
2014-Jul-25 02:31N 37°08' W 001°27'9 9.2
2014-Jul-25 01:33N 37°01' W 001°34'1110.7
2014-Jul-25 00:33N 36°52' W 001°41'1211.3
2014-Jul-24 23:31N 36°43' W 001°50'2116.2
2014-Jul-24 22:13N 36°26' W 002°06'1116.0
2014-Jul-24 21:31N 36°22' W 002°19'151 6.6
2014-Jul-23 22:33N 35°58' W 005°24'3916.0
2014-Jul-23 20:07N 35°54' W 006°12'38 3.9
2014-Jul-23 10:15N 36°32' W 006°17'  
Track history (hours):
 
Tides and Currents Weather Stations Pressure Air Temp Water Temp Dewpoint Dewpoint Depression Visibility Wind Speed Wind Dir Waves Ship Positions

Thomson Dream

Last reported at 2014-Aug-02 06:33 UTC. Time now 2014-Aug-02 06:42 UTC.
Position N 39°33' E 002°38'.

Length 243 m; draft 7.6 m.

Type: Ship. MMSI: 248480975.

Date/timePositionNaut miles runAvg speedWind from/ knotsBaromVisibWave heightAir tempDewpointWater temp
2014-Aug-02 06:33N 39°33' E 002°38'0 0.0
2014-Aug-02 05:33N 39°33' E 002°38'0 0.0
2014-Aug-02 04:33N 39°33' E 002°38'0 0.3
2014-Aug-02 03:33N 39°33' E 002°38'8 7.8
2014-Aug-02 02:33N 39°27' E 002°33'1010.4
2014-Aug-02 01:33N 39°29' E 002°20'1111.2
2014-Aug-02 00:33N 39°39' E 002°14'1212.0
2014-Aug-01 23:33N 39°51' E 002°14'1212.2
2014-Aug-01 22:33N 40°03' E 002°14'1212.2
2014-Aug-01 21:33N 40°15' E 002°13'1212.3
2014-Aug-01 20:33N 40°28' E 002°12'1212.3
2014-Aug-01 19:33N 40°40' E 002°14'1212.3
2014-Aug-01 18:33N 40°52' E 002°13'1312.6
2014-Aug-01 17:33N 41°05' E 002°14'1312.9
2014-Aug-01 16:33N 41°18' E 002°13'5 2.0
2014-Aug-01 14:17N 41°22' E 002°11'0 0.0
2014-Aug-01 13:23N 41°22' E 002°11'0 0.0
2014-Aug-01 12:23N 41°22' E 002°11'0 0.0
2014-Aug-01 11:29N 41°22' E 002°11'0 0.0
2014-Aug-01 10:23N 41°22' E 002°11'0 0.0
2014-Aug-01 09:23N 41°22' E 002°11'0 0.0
2014-Aug-01 08:17N 41°22' E 002°11'0 0.0
2014-Aug-01 07:33N 41°22' E 002°11'7 7.1
2014-Aug-01 06:33N 41°21' E 002°20'1615.8
2014-Aug-01 05:33N 41°27' E 002°40'1615.7
2014-Aug-01 04:33N 41°34' E 002°59'1717.1
2014-Aug-01 03:33N 41°43' E 003°18'1716.9
2014-Aug-01 02:33N 41°51' E 003°38'1615.8
2014-Aug-01 01:33N 41°58' E 003°57'1616.1
2014-Aug-01 00:33N 42°06' E 004°16'1616.4
2014-Jul-31 23:33N 42°13' E 004°36'1615.9
2014-Jul-31 22:33N 42°20' E 004°55'1515.1
2014-Jul-31 21:33N 42°27' E 005°13'1515.4
2014-Jul-31 20:33N 42°34' E 005°32'1515.4
2014-Jul-31 19:33N 42°41' E 005°50'1615.5
2014-Jul-31 18:33N 42°48' E 006°09'1616.1
2014-Jul-31 17:33N 42°57' E 006°28'1616.3
2014-Jul-31 16:33N 43°08' E 006°44'1515.2
2014-Jul-31 15:33N 43°23' E 006°46'1 1.3
2014-Jul-31 14:31N 43°25' E 006°46'0 0.0
2014-Jul-31 13:31N 43°25' E 006°46'0 0.0
2014-Jul-31 12:31N 43°25' E 006°46'0 0.0
2014-Jul-31 11:31N 43°25' E 006°46'0 0.0
2014-Jul-31 10:31N 43°25' E 006°46'0 0.1
2014-Jul-31 09:31N 43°25' E 006°46'0 0.0
2014-Jul-31 08:31N 43°25' E 006°46'0 0.0
2014-Jul-31 07:31N 43°25' E 006°46'0 0.0
2014-Jul-31 06:31N 43°25' E 006°46'0 0.0
2014-Jul-31 05:31N 43°25' E 006°46'0 0.2
2014-Jul-31 04:33N 43°25' E 006°46'1211.7
2014-Jul-31 03:33N 43°23' E 007°02'1515.5
2014-Jul-31 02:33N 43°24' E 007°23'1514.6
2014-Jul-31 01:33N 43°24' E 007°43'1414.4
2014-Jul-31 00:33N 43°26' E 008°03'1514.2
2014-Jul-30 23:28N 43°28' E 008°24'1414.8
2014-Jul-30 22:33N 43°31' E 008°42'1514.8
2014-Jul-30 21:33N 43°29' E 009°03'1515.0
2014-Jul-30 20:33N 43°31' E 009°23'1514.9
2014-Jul-30 19:33N 43°32' E 009°44'1514.7
2014-Jul-30 18:33N 43°30' E 010°04'1010.2
2014-Jul-30 17:33N 43°33' E 010°18'0 0.2
2014-Jul-30 16:33N 43°33' E 010°18'0 0.0
2014-Jul-30 15:33N 43°33' E 010°18'0 0.0
2014-Jul-30 14:33N 43°33' E 010°18'0 0.0
2014-Jul-30 13:33N 43°33' E 010°18'0 0.0
2014-Jul-30 12:33N 43°33' E 010°18'0 0.0
2014-Jul-30 11:33N 43°33' E 010°18'0 0.0
2014-Jul-30 10:33N 43°33' E 010°18'0 0.0
2014-Jul-30 09:33N 43°33' E 010°18'0 0.0
2014-Jul-30 08:33N 43°33' E 010°18'0 0.0
2014-Jul-30 07:33N 43°33' E 010°18'0 0.0
2014-Jul-30 06:33N 43°33' E 010°18'0 0.0
2014-Jul-30 05:33N 43°33' E 010°18'0 0.1
2014-Jul-30 04:33N 43°33' E 010°18'8 8.1
2014-Jul-30 03:33N 43°26' E 010°13'1514.5
2014-Jul-30 02:33N 43°12' E 010°08'1414.4
2014-Jul-30 01:33N 42°58' E 010°02'96 2.8
2014-Jul-28 15:04N 41°45' E 008°37'17 1.3
2014-Jul-28 02:16N 41°39' E 008°16'1011.0
2014-Jul-28 01:22N 41°34' E 008°05'911.0
2014-Jul-28 00:33N 41°29' E 007°55'1111.0
2014-Jul-27 23:33N 41°23' E 007°43'1111.1
2014-Jul-27 22:33N 41°17' E 007°30'1111.0
2014-Jul-27 21:31N 41°11' E 007°18'1211.3
2014-Jul-27 20:29N 41°05' E 007°05'1111.3
2014-Jul-27 19:33N 40°59' E 006°53'1111.1
2014-Jul-27 18:33N 40°53' E 006°40'12611.3
2014-Jul-27 07:26N 39°45' E 004°21'1011.2
2014-Jul-27 06:33N 39°40' E 004°11'1111.3
2014-Jul-27 05:33N 39°34' E 003°58'1311.3
2014-Jul-27 04:25N 39°27' E 003°44'1011.3
2014-Jul-27 03:33N 39°22' E 003°34'1111.3
2014-Jul-27 02:33N 39°16' E 003°21'1111.3
2014-Jul-27 01:33N 39°09' E 003°10'1110.8
2014-Jul-27 00:33N 39°05' E 002°57'10 9.7
2014-Jul-26 23:33N 39°10' E 002°47'1211.6
2014-Jul-26 22:33N 39°22' E 002°42'1111.5
2014-Jul-26 21:33N 39°33' E 002°39'1 1.0
2014-Jul-26 20:32N 39°33' E 002°38'0 0.0
2014-Jul-26 19:32N 39°33' E 002°38'0 0.0
2014-Jul-26 17:32N 39°33' E 002°38'0 0.0
2014-Jul-26 16:20N 39°33' E 002°38'0 0.0
2014-Jul-26 15:32N 39°33' E 002°38'0 0.0
2014-Jul-26 14:32N 39°33' E 002°38'0 0.0
2014-Jul-26 13:32N 39°33' E 002°38'0 0.0
2014-Jul-26 12:32N 39°33' E 002°38'0 0.0
2014-Jul-26 11:29N 39°33' E 002°38'0 0.0
2014-Jul-26 10:32N 39°33' E 002°38'0 0.0
2014-Jul-26 09:32N 39°33' E 002°38'0 0.0
2014-Jul-26 08:32N 39°33' E 002°38'0 0.0
2014-Jul-26 07:32N 39°33' E 002°38'0 0.0
2014-Jul-26 06:32N 39°33' E 002°38'0 0.0
2014-Jul-26 05:32N 39°33' E 002°38'0 0.2
2014-Jul-26 04:33N 39°33' E 002°38'1212.3
2014-Jul-26 03:33N 39°23' E 002°30'1616.0
2014-Jul-26 02:33N 39°11' E 002°16'1515.2
2014-Jul-26 01:33N 38°59' E 002°03'1312.8
2014-Jul-26 00:33N 38°50' E 001°52'1313.0
2014-Jul-25 23:33N 38°40' E 001°41'1412.8
2014-Jul-25 22:27N 38°32' E 001°26'1212.9
2014-Jul-25 21:33N 38°26' E 001°14'1413.0
2014-Jul-25 20:27N 38°18' E 000°59'1213.1
2014-Jul-25 19:33N 38°11' E 000°46'1414.0
2014-Jul-25 18:33N 38°04' E 000°31'1817.5
2014-Jul-25 17:33N 37°55' E 000°12'1717.1
2014-Jul-25 16:33N 37°45' W 000°06'1413.8
2014-Jul-25 15:33N 37°38' W 000°20'1312.6
2014-Jul-25 14:33N 37°32' W 000°34'37 3.4
2014-Jul-25 03:30N 37°16' W 001°17'1111.6
2014-Jul-25 02:31N 37°08' W 001°27'9 9.2
2014-Jul-25 01:33N 37°01' W 001°34'1110.7
2014-Jul-25 00:33N 36°52' W 001°41'1211.3
2014-Jul-24 23:31N 36°43' W 001°50'2116.2
2014-Jul-24 22:13N 36°26' W 002°06'1116.0
2014-Jul-24 21:31N 36°22' W 002°19'151 6.6
2014-Jul-23 22:33N 35°58' W 005°24'3916.0
2014-Jul-23 20:07N 35°54' W 006°12'38 3.9
2014-Jul-23 10:15N 36°32' W 006°17'  

Dump ship's entire track history